sensor_id;sensor_type;location;lat;lon;timestamp;pressure;altitude;pressure_sealevel;temperature;humidity
51715;BME280;39115;59.332;18.034;2023-04-01T00:00:12;100404.72;;;-1.81;51.11
51715;BME280;39115;59.332;18.034;2023-04-01T00:02:33;100402.31;;;-1.86;51.41
51715;BME280;39115;59.332;18.034;2023-04-01T00:04:53;100412.81;;;-1.87;51.21
51715;BME280;39115;59.332;18.034;2023-04-01T00:07:14;100409.50;;;-1.91;51.11
51715;BME280;39115;59.332;18.034;2023-04-01T00:09:34;100407.94;;;-1.95;51.63
51715;BME280;39115;59.332;18.034;2023-04-01T00:11:55;100410.66;;;-1.98;51.53
51715;BME280;39115;59.332;18.034;2023-04-01T00:14:15;100411.56;;;-1.99;51.61
51715;BME280;39115;59.332;18.034;2023-04-01T00:16:36;100421.09;;;-1.98;51.73
51715;BME280;39115;59.332;18.034;2023-04-01T00:18:57;100426.31;;;-1.98;51.84
51715;BME280;39115;59.332;18.034;2023-04-01T00:21:18;100424.69;;;-2.01;51.68
51715;BME280;39115;59.332;18.034;2023-04-01T00:23:40;100419.66;;;-2.05;51.95
51715;BME280;39115;59.332;18.034;2023-04-01T00:26:02;100420.47;;;-2.05;52.25
51715;BME280;39115;59.332;18.034;2023-04-01T00:28:22;100418.75;;;-2.04;52.11
51715;BME280;39115;59.332;18.034;2023-04-01T00:30:43;100427.28;;;-2.01;52.45
51715;BME280;39115;59.332;18.034;2023-04-01T00:33:04;100421.16;;;-2.00;51.97
51715;BME280;39115;59.332;18.034;2023-04-01T00:35:25;100428.13;;;-2.00;52.30
51715;BME280;39115;59.332;18.034;2023-04-01T00:37:45;100423.78;;;-2.00;52.71
51715;BME280;39115;59.332;18.034;2023-04-01T00:40:08;100429.00;;;-2.00;52.39
51715;BME280;39115;59.332;18.034;2023-04-01T00:42:41;100432.56;;;-2.02;52.51
51715;BME280;39115;59.332;18.034;2023-04-01T00:45:35;100433.47;;;-2.03;51.65
51715;BME280;39115;59.332;18.034;2023-04-01T00:48:00;100431.81;;;-2.06;52.54
51715;BME280;39115;59.332;18.034;2023-04-01T00:50:24;100431.81;;;-2.06;52.97
51715;BME280;39115;59.332;18.034;2023-04-01T00:52:46;100431.09;;;-2.10;52.67
51715;BME280;39115;59.332;18.034;2023-04-01T00:55:07;100433.91;;;-2.14;52.88
51715;BME280;39115;59.332;18.034;2023-04-01T00:57:34;100439.25;;;-2.17;53.21
51715;BME280;39115;59.332;18.034;2023-04-01T00:59:57;100435.84;;;-2.19;53.21
51715;BME280;39115;59.332;18.034;2023-04-01T01:02:18;100429.72;;;-2.18;53.13
51715;BME280;39115;59.332;18.034;2023-04-01T01:04:39;100439.31;;;-2.19;53.43
51715;BME280;39115;59.332;18.034;2023-04-01T01:17:26;100445.22;;;-2.38;53.61
51715;BME280;39115;59.332;18.034;2023-04-01T01:22:39;100452.63;;;-2.49;53.42
51715;BME280;39115;59.332;18.034;2023-04-01T01:31:25;100441.41;;;-2.51;53.07
51715;BME280;39115;59.332;18.034;2023-04-01T01:36:14;100447.59;;;-2.53;53.75
51715;BME280;39115;59.332;18.034;2023-04-01T01:38:37;100444.13;;;-2.54;54.09
51715;BME280;39115;59.332;18.034;2023-04-01T01:40:59;100442.41;;;-2.55;54.08
51715;BME280;39115;59.332;18.034;2023-04-01T01:43:30;100452.00;;;-2.56;54.04
51715;BME280;39115;59.332;18.034;2023-04-01T01:45:58;100443.38;;;-2.58;54.23
51715;BME280;39115;59.332;18.034;2023-04-01T01:48:20;100453.72;;;-2.55;54.13
51715;BME280;39115;59.332;18.034;2023-04-01T01:50:44;100439.03;;;-2.57;54.63
51715;BME280;39115;59.332;18.034;2023-04-01T01:53:08;100447.63;;;-2.55;54.62
51715;BME280;39115;59.332;18.034;2023-04-01T01:57:52;100446.84;;;-2.57;54.40
51715;BME280;39115;59.332;18.034;2023-04-01T02:00:13;100450.38;;;-2.58;54.93
51715;BME280;39115;59.332;18.034;2023-04-01T02:02:34;100452.97;;;-2.58;54.57
51715;BME280;39115;59.332;18.034;2023-04-01T02:04:55;100460.72;;;-2.57;55.06
51715;BME280;39115;59.332;18.034;2023-04-01T02:07:22;100460.81;;;-2.60;54.68
51715;BME280;39115;59.332;18.034;2023-04-01T02:09:45;100463.41;;;-2.58;54.97
51715;BME280;39115;59.332;18.034;2023-04-01T02:12:07;100458.22;;;-2.60;55.33
51715;BME280;39115;59.332;18.034;2023-04-01T02:14:37;100461.69;;;-2.59;55.04
51715;BME280;39115;59.332;18.034;2023-04-01T02:17:07;100458.22;;;-2.60;55.39
51715;BME280;39115;59.332;18.034;2023-04-01T02:19:35;100458.34;;;-2.63;55.60
51715;BME280;39115;59.332;18.034;2023-04-01T02:22:00;100458.47;;;-2.66;55.87
51715;BME280;39115;59.332;18.034;2023-04-01T02:24:23;100455.91;;;-2.67;55.57
51715;BME280;39115;59.332;18.034;2023-04-01T02:26:45;100468.16;;;-2.70;55.47
51715;BME280;39115;59.332;18.034;2023-04-01T02:29:06;100466.50;;;-2.72;55.55
51715;BME280;39115;59.332;18.034;2023-04-01T02:31:30;100470.03;;;-2.73;56.16
51715;BME280;39115;59.332;18.034;2023-04-01T02:33:51;100465.69;;;-2.73;56.04
51715;BME280;39115;59.332;18.034;2023-04-01T02:36:13;100461.22;;;-2.71;56.30
51715;BME280;39115;59.332;18.034;2023-04-01T02:38:35;100461.19;;;-2.69;56.09
51715;BME280;39115;59.332;18.034;2023-04-01T02:40:59;100461.19;;;-2.69;56.38
51715;BME280;39115;59.332;18.034;2023-04-01T02:43:20;100455.13;;;-2.70;56.36
51715;BME280;39115;59.332;18.034;2023-04-01T02:45:42;100462.03;;;-2.68;56.33
51715;BME280;39115;59.332;18.034;2023-04-01T02:48:03;100461.97;;;-2.67;56.34
51715;BME280;39115;59.332;18.034;2023-04-01T02:50:23;100452.44;;;-2.68;56.37
51715;BME280;39115;59.332;18.034;2023-04-01T02:52:44;100460.25;;;-2.68;56.46
51715;BME280;39115;59.332;18.034;2023-04-01T02:55:05;100459.38;;;-2.67;56.51
51715;BME280;39115;59.332;18.034;2023-04-01T02:57:26;100454.94;;;-2.65;56.75
51715;BME280;39115;59.332;18.034;2023-04-01T02:59:47;100459.31;;;-2.65;56.86
51715;BME280;39115;59.332;18.034;2023-04-01T03:02:08;100465.38;;;-2.65;56.65
51715;BME280;39115;59.332;18.034;2023-04-01T03:04:28;100457.56;;;-2.65;56.89
51715;BME280;39115;59.332;18.034;2023-04-01T03:06:49;100471.47;;;-2.64;56.90
51715;BME280;39115;59.332;18.034;2023-04-01T03:09:09;100467.16;;;-2.65;56.83
51715;BME280;39115;59.332;18.034;2023-04-01T03:11:30;100477.59;;;-2.67;56.99
51715;BME280;39115;59.332;18.034;2023-04-01T03:13:51;100479.38;;;-2.67;56.98
51715;BME280;39115;59.332;18.034;2023-04-01T03:16:11;100478.50;;;-2.68;57.05
51715;BME280;39115;59.332;18.034;2023-04-01T03:18:32;100471.66;;;-2.71;57.24
51715;BME280;39115;59.332;18.034;2023-04-01T03:20:52;100488.94;;;-2.68;57.30
51715;BME280;39115;59.332;18.034;2023-04-01T03:23:13;100492.41;;;-2.67;57.30
51715;BME280;39115;59.332;18.034;2023-04-01T03:25:33;100492.41;;;-2.67;57.69
51715;BME280;39115;59.332;18.034;2023-04-01T03:27:54;100496.72;;;-2.66;57.31
51715;BME280;39115;59.332;18.034;2023-04-01T03:30:15;100495.81;;;-2.65;57.46
51715;BME280;39115;59.332;18.034;2023-04-01T03:32:35;100501.75;;;-2.62;57.79
51715;BME280;39115;59.332;18.034;2023-04-01T03:34:56;100495.66;;;-2.61;57.35
51715;BME280;39115;59.332;18.034;2023-04-01T03:37:16;100501.63;;;-2.59;57.75
51715;BME280;39115;59.332;18.034;2023-04-01T03:39:37;100497.28;;;-2.58;57.94
51715;BME280;39115;59.332;18.034;2023-04-01T03:41:57;100501.59;;;-2.57;57.37
51715;BME280;39115;59.332;18.034;2023-04-01T03:44:18;100506.75;;;-2.56;57.54
51715;BME280;39115;59.332;18.034;2023-04-01T03:46:38;100508.47;;;-2.56;58.13
51715;BME280;39115;59.332;18.034;2023-04-01T03:48:59;100506.84;;;-2.59;57.90
51715;BME280;39115;59.332;18.034;2023-04-01T03:51:20;100506.84;;;-2.59;57.83
51715;BME280;39115;59.332;18.034;2023-04-01T03:53:40;100504.25;;;-2.59;57.79
51715;BME280;39115;59.332;18.034;2023-04-01T03:56:08;100513.03;;;-2.61;57.76
51715;BME280;39115;59.332;18.034;2023-04-01T03:58:29;100520.84;;;-2.61;57.91
51715;BME280;39115;59.332;18.034;2023-04-01T04:00:49;100510.47;;;-2.63;58.59
51715;BME280;39115;59.332;18.034;2023-04-01T04:03:10;100507.13;;;-2.66;58.27
51715;BME280;39115;59.332;18.034;2023-04-01T04:05:30;100510.59;;;-2.66;58.30
51715;BME280;39115;59.332;18.034;2023-04-01T04:07:51;100520.09;;;-2.65;58.30
51715;BME280;39115;59.332;18.034;2023-04-01T04:10:12;100521.88;;;-2.65;58.62
51715;BME280;39115;59.332;18.034;2023-04-01T04:12:33;100519.28;;;-2.65;58.81
51715;BME280;39115;59.332;18.034;2023-04-01T04:14:53;100527.84;;;-2.63;58.34
51715;BME280;39115;59.332;18.034;2023-04-01T04:17:14;100527.84;;;-2.63;58.51
51715;BME280;39115;59.332;18.034;2023-04-01T04:19:36;100532.16;;;-2.62;58.83
51715;BME280;39115;59.332;18.034;2023-04-01T04:21:56;100527.84;;;-2.63;58.75
51715;BME280;39115;59.332;18.034;2023-04-01T04:24:17;100526.97;;;-2.62;58.82
51715;BME280;39115;59.332;18.034;2023-04-01T04:26:38;100541.63;;;-2.60;58.97
51715;BME280;39115;59.332;18.034;2023-04-01T04:28:59;100532.88;;;-2.57;58.87
51715;BME280;39115;59.332;18.034;2023-04-01T04:31:24;100543.31;;;-2.57;59.27
51715;BME280;39115;59.332;18.034;2023-04-01T04:33:45;100547.53;;;-2.55;58.98
51715;BME280;39115;59.332;18.034;2023-04-01T04:36:05;100548.28;;;-2.51;59.02
51715;BME280;39115;59.332;18.034;2023-04-01T04:38:26;100547.38;;;-2.50;58.99
51715;BME280;39115;59.332;18.034;2023-04-01T04:40:47;100557.69;;;-2.47;59.33
51715;BME280;39115;59.332;18.034;2023-04-01T04:43:10;100559.28;;;-2.43;58.73
51715;BME280;39115;59.332;18.034;2023-04-01T04:45:31;100555.78;;;-2.42;59.11
51715;BME280;39115;59.332;18.034;2023-04-01T04:47:52;100562.56;;;-2.38;59.17
51715;BME280;39115;59.332;18.034;2023-04-01T04:50:13;100557.28;;;-2.36;59.11
51715;BME280;39115;59.332;18.034;2023-04-01T04:52:33;100562.41;;;-2.33;59.08
51715;BME280;39115;59.332;18.034;2023-04-01T04:54:54;100560.59;;;-2.31;59.27
51715;BME280;39115;59.332;18.034;2023-04-01T04:57:14;100571.06;;;-2.32;59.01
51715;BME280;39115;59.332;18.034;2023-04-01T04:59:35;100570.13;;;-2.30;59.32
51715;BME280;39115;59.332;18.034;2023-04-01T05:01:56;100573.47;;;-2.26;59.63
51715;BME280;39115;59.332;18.034;2023-04-01T05:04:17;100579.34;;;-2.21;59.54
51715;BME280;39115;59.332;18.034;2023-04-01T05:06:37;100578.28;;;-2.15;59.66
51715;BME280;39115;59.332;18.034;2023-04-01T05:08:58;100587.59;;;-2.10;59.46
51715;BME280;39115;59.332;18.034;2023-04-01T05:11:19;100581.38;;;-2.05;59.23
51715;BME280;39115;59.332;18.034;2023-04-01T05:13:41;100592.47;;;-2.00;59.31
51715;BME280;39115;59.332;18.034;2023-04-01T05:16:02;100586.25;;;-1.96;59.37
51715;BME280;39115;59.332;18.034;2023-04-01T05:18:22;100590.44;;;-1.92;59.70
51715;BME280;39115;59.332;18.034;2023-04-01T05:20:51;100595.47;;;-1.87;59.24
51715;BME280;39115;59.332;18.034;2023-04-01T05:23:12;100602.34;;;-1.85;59.41
51715;BME280;39115;59.332;18.034;2023-04-01T05:25:32;100603.88;;;-1.79;59.50
51715;BME280;39115;59.332;18.034;2023-04-01T05:27:53;100610.63;;;-1.73;59.75
51715;BME280;39115;59.332;18.034;2023-04-01T05:30:14;100608.59;;;-1.67;59.70
51715;BME280;39115;59.332;18.034;2023-04-01T05:32:34;100615.41;;;-1.63;59.67
51715;BME280;39115;59.332;18.034;2023-04-01T05:34:55;100610.84;;;-1.57;59.76
51715;BME280;39115;59.332;18.034;2023-04-01T05:37:15;100613.28;;;-1.53;59.64
51715;BME280;39115;59.332;18.034;2023-04-01T05:39:38;100617.50;;;-1.49;59.85
51715;BME280;39115;59.332;18.034;2023-04-01T05:41:58;100623.31;;;-1.42;59.59
51715;BME280;39115;59.332;18.034;2023-04-01T05:44:19;100627.50;;;-1.38;59.84
51715;BME280;39115;59.332;18.034;2023-04-01T05:46:40;100631.69;;;-1.34;59.74
51715;BME280;39115;59.332;18.034;2023-04-01T05:49:00;100623.69;;;-1.29;59.92
51715;BME280;39115;59.332;18.034;2023-04-01T05:51:21;100632.13;;;-1.22;59.78
51715;BME280;39115;59.332;18.034;2023-04-01T05:53:43;100626.66;;;-1.16;59.64
51715;BME280;39115;59.332;18.034;2023-04-01T05:56:03;100632.53;;;-1.11;59.69
51715;BME280;39115;59.332;18.034;2023-04-01T05:58:24;100632.25;;;-1.05;59.69
51715;BME280;39115;59.332;18.034;2023-04-01T06:00:45;100638.09;;;-0.98;59.84
51715;BME280;39115;59.332;18.034;2023-04-01T06:03:05;100637.84;;;-0.92;59.72
51715;BME280;39115;59.332;18.034;2023-04-01T06:05:38;100632.25;;;-0.83;59.92
51715;BME280;39115;59.332;18.034;2023-04-01T06:08:01;100634.53;;;-0.75;59.88
51715;BME280;39115;59.332;18.034;2023-04-01T06:11:18;100630.59;;;-0.65;59.29
51715;BME280;39115;59.332;18.034;2023-04-01T06:23:50;100632.91;;;-0.17;58.89
51715;BME280;39115;59.332;18.034;2023-04-01T06:26:24;100634.13;;;-0.05;59.23
51715;BME280;39115;59.332;18.034;2023-04-01T06:32:26;100632.94;;;0.21;58.68
51715;BME280;39115;59.332;18.034;2023-04-01T06:35:07;100643.78;;;0.33;58.71
51715;BME280;39115;59.332;18.034;2023-04-01T06:37:57;100644.19;;;0.42;58.71
51715;BME280;39115;59.332;18.034;2023-04-01T06:43:21;100650.09;;;0.65;58.57
51715;BME280;39115;59.332;18.034;2023-04-01T06:54:07;100661.19;;;1.07;57.53
51715;BME280;39115;59.332;18.034;2023-04-01T06:56:29;100669.44;;;1.17;57.52
51715;BME280;39115;59.332;18.034;2023-04-01T06:59:17;100674.94;;;1.30;57.13
51715;BME280;39115;59.332;18.034;2023-04-01T07:01:50;100675.50;;;1.36;57.27
51715;BME280;39115;59.332;18.034;2023-04-01T07:04:14;100685.56;;;1.44;56.83
51715;BME280;39115;59.332;18.034;2023-04-01T07:06:47;100680.66;;;1.55;56.92
51715;BME280;39115;59.332;18.034;2023-04-01T07:09:17;100689.06;;;1.62;56.68
51715;BME280;39115;59.332;18.034;2023-04-01T07:11:39;100694.78;;;1.70;56.59
51715;BME280;39115;59.332;18.034;2023-04-01T07:14:16;100689.91;;;1.80;56.54
51715;BME280;39115;59.332;18.034;2023-04-01T07:16:44;100693.81;;;1.89;56.20
51715;BME280;39115;59.332;18.034;2023-04-01T07:21:55;100707.59;;;2.10;56.00
51715;BME280;39115;59.332;18.034;2023-04-01T07:24:24;100703.56;;;2.20;55.36
51715;BME280;39115;59.332;18.034;2023-04-01T07:26:45;100705.59;;;2.31;55.35
51715;BME280;39115;59.332;18.034;2023-04-01T07:29:11;100706.63;;;2.45;55.19
51715;BME280;39115;59.332;18.034;2023-04-01T07:31:52;100709.44;;;2.58;55.15
51715;BME280;39115;59.332;18.034;2023-04-01T07:37:24;100704.00;;;2.77;54.90
51715;BME280;39115;59.332;18.034;2023-04-01T07:45:24;100726.38;;;3.16;54.38
51715;BME280;39115;59.332;18.034;2023-04-01T07:50:28;100728.22;;;3.30;53.81
51715;BME280;39115;59.332;18.034;2023-04-01T07:53:20;100724.09;;;3.40;53.71
51715;BME280;39115;59.332;18.034;2023-04-01T07:56:08;100733.59;;;3.43;53.88
51715;BME280;39115;59.332;18.034;2023-04-01T08:15:38;100742.97;;;4.08;52.12
51715;BME280;39115;59.332;18.034;2023-04-01T08:18:16;100743.78;;;4.08;52.21
51715;BME280;39115;59.332;18.034;2023-04-01T08:20:51;100739.00;;;4.15;52.27
51715;BME280;39115;59.332;18.034;2023-04-01T08:23:16;100741.00;;;4.26;52.12
51715;BME280;39115;59.332;18.034;2023-04-01T08:25:44;100741.19;;;4.37;52.03
51715;BME280;39115;59.332;18.034;2023-04-01T08:33:14;100743.50;;;4.71;51.14
51715;BME280;39115;59.332;18.034;2023-04-01T08:36:21;100746.88;;;4.87;51.06
51715;BME280;39115;59.332;18.034;2023-04-01T08:38:51;100741.84;;;4.97;51.38
51715;BME280;39115;59.332;18.034;2023-04-01T08:43:51;100753.09;;;5.14;50.47
51715;BME280;39115;59.332;18.034;2023-04-01T09:02:12;100762.69;;;5.69;49.63
51715;BME280;39115;59.332;18.034;2023-04-01T09:08:23;100773.50;;;5.92;49.11
51715;BME280;39115;59.332;18.034;2023-04-01T09:11:02;100766.88;;;5.99;49.08
51715;BME280;39115;59.332;18.034;2023-04-01T09:13:48;100759.91;;;6.11;49.18
51715;BME280;39115;59.332;18.034;2023-04-01T09:27:09;100778.19;;;6.40;48.14
51715;BME280;39115;59.332;18.034;2023-04-01T09:32:20;100791.09;;;6.45;48.20
51715;BME280;39115;59.332;18.034;2023-04-01T09:35:23;100797.63;;;6.52;47.55
51715;BME280;39115;59.332;18.034;2023-04-01T09:38:18;100791.69;;;6.61;47.77
51715;BME280;39115;59.332;18.034;2023-04-01T09:43:21;100789.53;;;6.79;47.25
51715;BME280;39115;59.332;18.034;2023-04-01T09:51:52;100790.78;;;7.00;47.13
51715;BME280;39115;59.332;18.034;2023-04-01T10:02:44;100796.47;;;7.06;46.45
51715;BME280;39115;59.332;18.034;2023-04-01T10:10:29;100807.28;;;7.27;45.47
51715;BME280;39115;59.332;18.034;2023-04-01T10:21:56;100813.16;;;7.44;45.37
51715;BME280;39115;59.332;18.034;2023-04-01T10:24:32;100819.00;;;7.49;44.79
51715;BME280;39115;59.332;18.034;2023-04-01T10:27:29;100815.13;;;7.53;45.04
51715;BME280;39115;59.332;18.034;2023-04-01T10:30:16;100824.78;;;7.54;44.36
51715;BME280;39115;59.332;18.034;2023-04-01T10:36:18;100827.84;;;7.61;44.42
51715;BME280;39115;59.332;18.034;2023-04-01T10:42:08;100841.69;;;7.65;43.95
51715;BME280;39115;59.332;18.034;2023-04-01T10:58:38;100838.75;;;7.56;43.23
51715;BME280;39115;59.332;18.034;2023-04-01T11:01:20;100851.56;;;7.63;43.07
51715;BME280;39115;59.332;18.034;2023-04-01T11:14:20;100856.94;;;7.85;42.04
51715;BME280;39115;59.332;18.034;2023-04-01T11:38:30;100847.53;;;8.17;40.54
51715;BME280;39115;59.332;18.034;2023-04-01T11:43:43;100846.06;;;8.13;40.38
51715;BME280;39115;59.332;18.034;2023-04-01T11:49:20;100860.69;;;8.18;40.73
51715;BME280;39115;59.332;18.034;2023-04-01T11:51:50;100853.69;;;8.17;40.15
51715;BME280;39115;59.332;18.034;2023-04-01T12:10:17;100872.38;;;8.27;40.11
51715;BME280;39115;59.332;18.034;2023-04-01T12:20:55;100875.72;;;8.53;40.05
51715;BME280;39115;59.332;18.034;2023-04-01T12:23:47;100869.34;;;8.56;40.03
51715;BME280;39115;59.332;18.034;2023-04-01T12:31:53;100883.81;;;8.63;39.39
51715;BME280;39115;59.332;18.034;2023-04-01T12:37:21;100905.16;;;8.62;39.53
51715;BME280;39115;59.332;18.034;2023-04-01T12:50:45;100921.34;;;8.59;38.93
51715;BME280;39115;59.332;18.034;2023-04-01T13:15:40;100954.03;;;8.59;38.58
51715;BME280;39115;59.332;18.034;2023-04-01T13:26:17;100968.63;;;8.65;38.63
51715;BME280;39115;59.332;18.034;2023-04-01T13:42:27;100981.91;;;8.76;37.77
51715;BME280;39115;59.332;18.034;2023-04-01T13:44:54;101000.06;;;8.82;37.59
51715;BME280;39115;59.332;18.034;2023-04-01T14:01:19;100991.84;;;8.85;37.80
51715;BME280;39115;59.332;18.034;2023-04-01T14:17:02;100988.59;;;9.05;37.61
51715;BME280;39115;59.332;18.034;2023-04-01T14:27:36;101027.25;;;9.20;37.22
51715;BME280;39115;59.332;18.034;2023-04-01T14:43:01;101033.84;;;10.17;36.98
51715;BME280;39115;59.332;18.034;2023-04-01T14:51:36;101054.72;;;12.61;35.47
51715;BME280;39115;59.332;18.034;2023-04-01T14:56:46;101060.34;;;14.92;32.31
51715;BME280;39115;59.332;18.034;2023-04-01T14:59:34;101054.00;;;16.32;31.65
51715;BME280;39115;59.332;18.034;2023-04-01T15:02:08;101063.03;;;17.46;29.16
51715;BME280;39115;59.332;18.034;2023-04-01T15:04:38;101073.25;;;18.62;28.22
51715;BME280;39115;59.332;18.034;2023-04-01T15:07:11;101076.78;;;19.84;27.11
51715;BME280;39115;59.332;18.034;2023-04-01T15:12:43;101075.88;;;22.27;24.74
51715;BME280;39115;59.332;18.034;2023-04-01T15:15:12;101081.53;;;23.60;22.50
51715;BME280;39115;59.332;18.034;2023-04-01T15:20:39;101081.75;;;25.57;21.10
51715;BME280;39115;59.332;18.034;2023-04-01T15:33:20;101097.00;;;26.98;17.65
51715;BME280;39115;59.332;18.034;2023-04-01T15:36:15;101090.84;;;27.15;17.08
51715;BME280;39115;59.332;18.034;2023-04-01T15:41:24;101096.44;;;27.32;16.98
51715;BME280;39115;59.332;18.034;2023-04-01T15:43:50;101103.22;;;27.18;16.17
51715;BME280;39115;59.332;18.034;2023-04-01T15:46:41;101102.00;;;26.90;16.95
51715;BME280;39115;59.332;18.034;2023-04-01T15:56:49;101112.25;;;26.64;16.41
51715;BME280;39115;59.332;18.034;2023-04-01T16:01:50;101110.47;;;27.71;15.74
51715;BME280;39115;59.332;18.034;2023-04-01T16:12:18;101129.94;;;29.25;14.56
51715;BME280;39115;59.332;18.034;2023-04-01T16:20:51;101136.38;;;29.13;14.21
51715;BME280;39115;59.332;18.034;2023-04-01T16:23:39;101141.69;;;29.03;13.92
51715;BME280;39115;59.332;18.034;2023-04-01T16:36:43;101159.31;;;27.32;14.12
51715;BME280;39115;59.332;18.034;2023-04-01T16:44:56;101168.75;;;25.26;15.09
51715;BME280;39115;59.332;18.034;2023-04-01T16:47:22;101170.03;;;24.67;14.94
51715;BME280;39115;59.332;18.034;2023-04-01T16:49:59;101172.81;;;24.01;15.15
51715;BME280;39115;59.332;18.034;2023-04-01T16:52:40;101173.28;;;23.58;15.75
51715;BME280;39115;59.332;18.034;2023-04-01T16:55:14;101182.88;;;23.13;15.89
51715;BME280;39115;59.332;18.034;2023-04-01T16:57:46;101185.72;;;21.81;16.40
51715;BME280;39115;59.332;18.034;2023-04-01T17:00:16;101180.94;;;19.33;17.42
51715;BME280;39115;59.332;18.034;2023-04-01T17:03:28;101189.56;;;16.19;19.00
51715;BME280;39115;59.332;18.034;2023-04-01T17:06:37;101210.25;;;13.63;20.76
51715;BME280;39115;59.332;18.034;2023-04-01T17:08:59;101209.25;;;11.82;22.13
51715;BME280;39115;59.332;18.034;2023-04-01T17:20:02;101221.44;;;7.78;25.36
51715;BME280;39115;59.332;18.034;2023-04-01T17:25:17;101233.28;;;6.50;26.37
51715;BME280;39115;59.332;18.034;2023-04-01T17:27:47;101244.69;;;6.07;27.35
51715;BME280;39115;59.332;18.034;2023-04-01T17:33:19;101247.03;;;5.52;27.94
51715;BME280;39115;59.332;18.034;2023-04-01T17:38:46;101249.66;;;5.06;28.79
51715;BME280;39115;59.332;18.034;2023-04-01T18:00:01;101283.19;;;4.22;31.71
51715;BME280;39115;59.332;18.034;2023-04-01T18:03:21;101289.72;;;4.15;31.74
51715;BME280;39115;59.332;18.034;2023-04-01T18:05:46;101291.19;;;4.03;32.24
51715;BME280;39115;59.332;18.034;2023-04-01T18:10:57;101298.72;;;3.76;33.62
51715;BME280;39115;59.332;18.034;2023-04-01T18:16:02;101304.84;;;3.59;34.28
51715;BME280;39115;59.332;18.034;2023-04-01T18:24:24;101320.00;;;3.17;34.86
51715;BME280;39115;59.332;18.034;2023-04-01T18:27:04;101313.25;;;3.11;34.21
51715;BME280;39115;59.332;18.034;2023-04-01T18:29:52;101328.34;;;3.08;35.02
51715;BME280;39115;59.332;18.034;2023-04-01T18:32:22;101335.66;;;3.01;35.51
51715;BME280;39115;59.332;18.034;2023-04-01T18:37:24;101336.06;;;2.92;35.79
51715;BME280;39115;59.332;18.034;2023-04-01T18:39:57;101342.63;;;2.83;35.68
51715;BME280;39115;59.332;18.034;2023-04-01T18:52:45;101373.03;;;2.49;37.42
51715;BME280;39115;59.332;18.034;2023-04-01T18:55:31;101375.00;;;2.44;36.96
51715;BME280;39115;59.332;18.034;2023-04-01T19:06:26;101392.28;;;2.08;38.02
51715;BME280;39115;59.332;18.034;2023-04-01T19:08:47;101397.53;;;2.08;38.37
51715;BME280;39115;59.332;18.034;2023-04-01T19:11:30;101401.06;;;2.07;38.62
51715;BME280;39115;59.332;18.034;2023-04-01T19:16:30;101411.00;;;2.00;39.33
51715;BME280;39115;59.332;18.034;2023-04-01T19:37:33;101426.34;;;1.67;40.33
51715;BME280;39115;59.332;18.034;2023-04-01T19:43:37;101436.22;;;1.60;40.07
51715;BME280;39115;59.332;18.034;2023-04-01T19:54:22;101446.44;;;1.44;40.69
51715;BME280;39115;59.332;18.034;2023-04-01T20:04:50;101464.47;;;1.30;41.02
51715;BME280;39115;59.332;18.034;2023-04-01T20:07:41;101463.78;;;1.24;41.13
51715;BME280;39115;59.332;18.034;2023-04-01T20:13:32;101466.97;;;1.09;41.50
51715;BME280;39115;59.332;18.034;2023-04-01T20:16:09;101469.03;;;1.01;41.59
51715;BME280;39115;59.332;18.034;2023-04-01T20:18:56;101469.94;;;1.00;41.75
51715;BME280;39115;59.332;18.034;2023-04-01T20:21:33;101470.06;;;0.97;42.52
51715;BME280;39115;59.332;18.034;2023-04-01T20:24:07;101464.84;;;0.95;42.47
51715;BME280;39115;59.332;18.034;2023-04-01T20:26:38;101474.56;;;0.93;42.96
51715;BME280;39115;59.332;18.034;2023-04-01T20:29:37;101473.81;;;0.89;42.56
51715;BME280;39115;59.332;18.034;2023-04-01T20:40:32;101490.00;;;0.75;43.24
51715;BME280;39115;59.332;18.034;2023-04-01T20:45:54;101495.41;;;0.71;43.55
51715;BME280;39115;59.332;18.034;2023-04-01T20:49:25;101492.25;;;0.61;43.58
51715;BME280;39115;59.332;18.034;2023-04-01T20:51:24;101493.19;;;0.58;44.33
51715;BME280;39115;59.332;18.034;2023-04-01T20:56:36;101503.09;;;0.50;44.75
51715;BME280;39115;59.332;18.034;2023-04-01T21:01:47;101501.69;;;0.40;45.15
51715;BME280;39115;59.332;18.034;2023-04-01T21:13:00;101518.56;;;0.31;45.96
51715;BME280;39115;59.332;18.034;2023-04-01T21:21:24;101526.31;;;0.34;45.96
51715;BME280;39115;59.332;18.034;2023-04-01T21:24:28;101538.50;;;0.35;46.16
51715;BME280;39115;59.332;18.034;2023-04-01T21:34:42;101548.94;;;0.37;45.82
51715;BME280;39115;59.332;18.034;2023-04-01T21:37:17;101551.59;;;0.35;46.77
51715;BME280;39115;59.332;18.034;2023-04-01T21:42:28;101556.16;;;0.28;46.91
51715;BME280;39115;59.332;18.034;2023-04-01T22:01:57;101567.13;;;0.13;48.00
51715;BME280;39115;59.332;18.034;2023-04-01T22:13:59;101591.69;;;0.09;47.92
51715;BME280;39115;59.332;18.034;2023-04-01T22:19:06;101590.81;;;0.08;46.92
51715;BME280;39115;59.332;18.034;2023-04-01T22:24:11;101595.22;;;0.08;46.58
51715;BME280;39115;59.332;18.034;2023-04-01T22:26:36;101599.56;;;0.09;46.05
51715;BME280;39115;59.332;18.034;2023-04-01T22:31:31;101599.69;;;0.04;45.90
51715;BME280;39115;59.332;18.034;2023-04-01T22:36:20;101609.28;;;0.05;45.88
51715;BME280;39115;59.332;18.034;2023-04-01T22:43:47;101625.94;;;0.01;45.41
51715;BME280;39115;59.332;18.034;2023-04-01T22:48:42;101627.78;;;-0.01;45.58
51715;BME280;39115;59.332;18.034;2023-04-01T22:53:57;101629.56;;;-0.03;45.68
51715;BME280;39115;59.332;18.034;2023-04-01T22:56:20;101622.69;;;-0.06;45.41
51715;BME280;39115;59.332;18.034;2023-04-01T22:58:56;101634.03;;;-0.07;45.61
51715;BME280;39115;59.332;18.034;2023-04-01T23:01:24;101633.16;;;-0.07;45.43
51715;BME280;39115;59.332;18.034;2023-04-01T23:03:46;101634.88;;;-0.06;45.36